createdAt,value
2022-12-08T00:01:10.692Z,1.66
2022-12-08T00:06:47.310Z,1.64
2022-12-08T00:12:05.416Z,1.63
2022-12-08T00:17:17.427Z,1.63
2022-12-08T00:22:26.890Z,1.55
2022-12-08T00:27:36.427Z,1.53
2022-12-08T00:32:45.865Z,1.53
2022-12-08T00:38:00.582Z,1.52
2022-12-08T00:43:10.917Z,1.52
2022-12-08T00:48:20.538Z,1.55
2022-12-08T00:53:30.123Z,1.58
2022-12-08T00:58:39.963Z,1.59
2022-12-08T01:03:49.658Z,1.62
2022-12-08T01:08:59.109Z,1.65
2022-12-08T01:14:09.213Z,1.63
2022-12-08T01:19:20.742Z,1.64
2022-12-08T01:24:30.142Z,1.63
2022-12-08T01:29:39.897Z,1.61
2022-12-08T01:34:49.294Z,1.63
2022-12-08T01:39:58.657Z,1.63
2022-12-08T01:45:15.738Z,1.63
2022-12-08T01:50:26.530Z,1.68
2022-12-08T01:55:42.719Z,1.70
2022-12-08T02:00:53.546Z,1.71
2022-12-08T02:06:04.190Z,1.73
2022-12-08T02:11:15.919Z,1.74
2022-12-08T02:16:42.383Z,1.68
2022-12-08T02:22:01.349Z,1.68
2022-12-08T02:27:42.345Z,1.58
2022-12-08T02:33:39.027Z,1.45
2022-12-08T02:39:02.593Z,1.35
2022-12-08T02:44:21.778Z,1.32
2022-12-08T02:49:36.850Z,1.30
2022-12-08T02:54:51.492Z,1.32
2022-12-08T03:00:14.398Z,1.24
2022-12-08T03:05:45.599Z,1.21
2022-12-08T03:11:03.130Z,1.17
2022-12-08T03:16:20.107Z,1.10
2022-12-08T03:21:31.116Z,1.07
2022-12-08T03:26:48.180Z,1.03
2022-12-08T03:32:02.783Z,1.01
2022-12-08T03:37:12.133Z,0.97
2022-12-08T03:42:21.624Z,0.91
2022-12-08T03:47:31.049Z,0.94
2022-12-08T03:52:41.189Z,0.94
2022-12-08T03:57:50.960Z,0.89
2022-12-08T04:03:00.827Z,0.89
2022-12-08T04:08:10.700Z,0.94
2022-12-08T04:13:20.464Z,0.96
2022-12-08T04:18:30.042Z,1.06
2022-12-08T04:23:39.679Z,1.17
2022-12-08T04:28:49.439Z,1.24
2022-12-08T04:33:59.156Z,1.32
2022-12-08T04:39:08.747Z,1.38
2022-12-08T04:44:18.522Z,1.41
2022-12-08T04:49:28.308Z,1.46
2022-12-08T04:54:38.133Z,1.50
2022-12-08T04:59:47.832Z,1.50
2022-12-08T05:04:57.321Z,1.53
2022-12-08T05:10:07.999Z,1.57
2022-12-08T05:15:18.220Z,1.55
2022-12-08T05:20:27.945Z,1.54
2022-12-08T05:25:37.316Z,1.58
2022-12-08T05:30:46.963Z,1.59
2022-12-08T05:35:56.306Z,1.57
2022-12-08T05:41:07.087Z,1.57
2022-12-08T05:46:17.671Z,1.57
2022-12-08T05:51:28.227Z,1.56
2022-12-08T05:56:38.050Z,1.55
2022-12-08T06:01:47.852Z,1.52
2022-12-08T06:06:57.283Z,1.53
2022-12-08T06:12:07.822Z,1.58
2022-12-08T06:17:17.349Z,1.61
2022-12-08T06:22:26.927Z,1.58
2022-12-08T06:27:36.456Z,1.56
2022-12-08T06:32:46.195Z,1.57
2022-12-08T06:37:55.632Z,1.56
2022-12-08T06:43:05.378Z,1.55
2022-12-08T06:48:14.768Z,1.54
2022-12-08T06:53:24.290Z,1.50
2022-12-08T06:58:33.926Z,1.46
2022-12-08T07:03:44.967Z,1.45
2022-12-08T07:08:54.843Z,1.46
2022-12-08T07:14:04.582Z,1.53
2022-12-08T07:19:13.988Z,1.57
2022-12-08T07:24:23.675Z,1.57
2022-12-08T07:29:33.086Z,1.62
2022-12-08T07:34:42.457Z,1.62
2022-12-08T07:39:51.897Z,1.61
2022-12-08T07:45:01.699Z,1.63
2022-12-08T07:50:13.175Z,1.63
2022-12-08T07:55:22.726Z,1.63
2022-12-08T08:00:32.675Z,1.70
2022-12-08T08:05:43.827Z,1.77
2022-12-08T08:10:53.395Z,1.78
2022-12-08T08:16:11.374Z,1.80
2022-12-08T08:21:44.994Z,1.83
2022-12-08T08:26:53.851Z,1.84
2022-12-08T08:32:03.400Z,1.76
2022-12-08T08:37:12.954Z,1.76
2022-12-08T08:42:22.799Z,1.83
2022-12-08T08:47:32.415Z,1.86
2022-12-08T08:52:42.070Z,1.86
2022-12-08T08:57:51.655Z,1.82
2022-12-08T09:03:01.488Z,1.75
2022-12-08T09:08:11.176Z,1.80
2022-12-08T09:13:20.729Z,1.78
2022-12-08T09:18:30.469Z,1.68
2022-12-08T09:23:40.297Z,1.66
2022-12-08T09:28:50.359Z,1.73
2022-12-08T09:34:00.631Z,1.80
2022-12-08T09:39:10.622Z,1.67
2022-12-08T09:44:47.548Z,1.63
2022-12-08T09:50:08.167Z,1.57
2022-12-08T09:55:26.140Z,1.48
2022-12-08T10:00:38.909Z,1.36
2022-12-08T10:05:57.843Z,1.25
2022-12-08T10:11:21.386Z,1.19
2022-12-08T10:16:40.687Z,1.18
2022-12-08T10:21:50.603Z,1.20
2022-12-08T10:27:02.047Z,1.28
2022-12-08T10:32:22.472Z,1.47
2022-12-08T10:37:32.217Z,1.72
2022-12-08T10:42:44.985Z,1.98
2022-12-08T10:48:04.606Z,2.06
2022-12-08T10:53:25.250Z,1.98
2022-12-08T10:58:40.928Z,1.98
2022-12-08T11:03:55.663Z,2.00
2022-12-08T11:09:23.651Z,2.02
2022-12-08T11:14:39.669Z,1.97
2022-12-08T11:20:00.408Z,2.01
2022-12-08T11:25:20.306Z,2.18
2022-12-08T11:30:34.124Z,2.19
2022-12-08T11:35:47.197Z,2.14
2022-12-08T11:41:01.899Z,2.14
2022-12-08T11:46:21.613Z,2.20
2022-12-08T11:51:38.902Z,2.30
2022-12-08T11:56:54.274Z,2.43
2022-12-08T12:02:06.773Z,2.58
2022-12-08T12:07:58.226Z,2.63
2022-12-08T12:13:42.204Z,2.70
2022-12-08T12:18:56.739Z,2.70
2022-12-08T12:24:12.587Z,2.65
2022-12-08T12:29:25.685Z,2.63
2022-12-08T12:34:40.522Z,2.51
2022-12-08T12:39:59.837Z,2.38
2022-12-08T12:45:32.015Z,2.27
2022-12-08T12:50:48.877Z,2.12
2022-12-08T12:56:01.260Z,2.09
2022-12-08T13:01:52.805Z,1.99
2022-12-08T13:07:05.201Z,1.83
2022-12-08T13:12:25.116Z,1.74
2022-12-08T13:17:38.827Z,1.62
2022-12-08T13:23:43.918Z,1.55
2022-12-08T13:29:27.321Z,1.55
2022-12-08T13:34:43.648Z,1.49
2022-12-08T13:40:00.542Z,1.48
2022-12-08T13:57:02.772Z,1.66
2022-12-08T14:02:05.485Z,1.67
2022-12-08T14:07:16.974Z,1.82
2022-12-08T14:12:29.618Z,1.86
2022-12-08T14:17:40.655Z,1.79
2022-12-08T14:22:53.221Z,1.88
2022-12-08T14:28:06.764Z,1.96
2022-12-08T14:33:19.553Z,2.07
2022-12-08T14:38:30.060Z,2.21
2022-12-08T14:43:41.379Z,2.30
2022-12-08T14:48:53.934Z,2.35
2022-12-08T14:54:09.976Z,2.39
2022-12-08T14:59:26.639Z,2.38
2022-12-08T15:04:38.777Z,2.44
2022-12-08T15:09:51.438Z,2.48
2022-12-08T15:15:16.139Z,2.55
2022-12-08T15:20:41.873Z,2.56
2022-12-08T15:25:51.719Z,2.53
2022-12-08T15:31:02.008Z,2.56
2022-12-08T15:36:13.526Z,2.59
2022-12-08T15:41:22.885Z,2.66
2022-12-08T15:46:32.494Z,2.66
2022-12-08T15:51:42.060Z,2.63
2022-12-08T15:57:18.435Z,2.61
2022-12-08T16:02:34.334Z,2.66
2022-12-08T16:07:57.826Z,2.69
2022-12-08T16:13:56.168Z,2.68
2022-12-08T16:18:56.975Z,2.64
2022-12-08T16:24:09.442Z,2.67
2022-12-08T16:29:24.447Z,2.69
2022-12-08T16:34:33.907Z,2.75
2022-12-08T16:39:45.878Z,2.82
2022-12-08T16:44:55.779Z,2.89
2022-12-08T16:50:09.521Z,2.90
2022-12-08T16:55:21.369Z,2.84
2022-12-08T17:00:37.182Z,2.86
2022-12-08T17:05:47.959Z,2.85
2022-12-08T17:11:09.150Z,2.87
2022-12-08T17:16:21.948Z,2.82
2022-12-08T17:21:31.743Z,2.80
2022-12-08T17:26:41.324Z,2.83
2022-12-08T17:31:51.491Z,2.84
2022-12-08T17:37:01.157Z,2.83
2022-12-08T17:42:11.605Z,2.81
2022-12-08T17:47:21.051Z,2.87
2022-12-08T17:52:30.616Z,2.88
2022-12-08T17:57:40.197Z,2.87
2022-12-08T18:02:49.995Z,2.85
2022-12-08T18:08:01.089Z,2.83
2022-12-08T18:13:10.884Z,2.83
2022-12-08T18:18:22.926Z,2.87
2022-12-08T18:23:32.816Z,2.91
2022-12-08T18:28:42.998Z,2.96
2022-12-08T18:33:53.805Z,2.96
2022-12-08T18:39:10.183Z,2.95
2022-12-08T18:44:20.884Z,2.99
2022-12-08T18:49:30.715Z,2.99
2022-12-08T18:55:05.229Z,2.96
2022-12-08T19:00:15.894Z,3.01
2022-12-08T19:05:25.692Z,3.05
2022-12-08T19:10:38.754Z,3.08
2022-12-08T19:15:48.493Z,3.06
2022-12-08T19:20:59.908Z,3.06
2022-12-08T19:26:12.150Z,3.11
2022-12-08T19:31:21.902Z,3.12
2022-12-08T19:36:35.664Z,3.11
2022-12-08T19:42:03.023Z,3.10
2022-12-08T19:47:12.805Z,3.16
2022-12-08T19:52:22.852Z,3.18
2022-12-08T19:57:32.977Z,3.21
2022-12-08T20:02:42.573Z,3.18
2022-12-08T20:07:55.835Z,3.20
2022-12-08T20:13:35.539Z,3.25
2022-12-08T20:18:48.037Z,3.26
2022-12-08T20:23:57.821Z,3.23
2022-12-08T20:29:07.319Z,3.30
2022-12-08T20:34:20.692Z,3.37
2022-12-08T20:39:30.270Z,3.40
2022-12-08T20:44:43.651Z,3.36
2022-12-08T20:49:53.419Z,3.31
2022-12-08T20:55:03.034Z,3.26
2022-12-08T21:00:15.591Z,3.19
2022-12-08T21:05:25.575Z,3.14
2022-12-08T21:10:42.179Z,3.11
2022-12-08T21:15:53.818Z,3.01
2022-12-08T21:21:10.623Z,2.86
2022-12-08T21:26:23.633Z,2.72
2022-12-08T21:31:33.717Z,2.58
2022-12-08T21:36:43.419Z,2.50
2022-12-08T21:42:10.801Z,2.49
2022-12-08T21:47:20.640Z,2.40
2022-12-08T21:52:30.660Z,2.29
2022-12-08T21:57:40.708Z,2.32
2022-12-08T22:02:50.266Z,2.35
2022-12-08T22:08:00.117Z,2.39
2022-12-08T22:13:09.632Z,2.38
2022-12-08T22:18:19.474Z,2.33
2022-12-08T22:23:29.662Z,2.32
2022-12-08T22:28:42.883Z,2.36
2022-12-08T22:33:53.895Z,2.40
2022-12-08T22:39:05.296Z,2.37
2022-12-08T22:44:17.577Z,2.33
2022-12-08T22:49:28.720Z,2.30
2022-12-08T22:54:38.711Z,2.29
2022-12-08T22:59:48.313Z,2.35
2022-12-08T23:05:00.004Z,2.39
2022-12-08T23:10:12.408Z,2.45
2022-12-08T23:15:22.560Z,2.46
2022-12-08T23:20:32.139Z,2.40
2022-12-08T23:25:45.221Z,2.38
2022-12-08T23:30:55.295Z,2.42
2022-12-08T23:36:05.133Z,2.46
2022-12-08T23:41:17.340Z,2.43
2022-12-08T23:46:27.776Z,2.38
2022-12-08T23:51:38.172Z,2.32
2022-12-08T23:56:48.367Z,2.27
